createdAt,value
2022-12-28T11:52:42.587Z,4.10
2022-12-28T11:55:41.004Z,4.06
2022-12-28T11:58:53.339Z,4.05
2022-12-28T12:01:44.599Z,4.08
2022-12-28T12:04:43.123Z,4.10
2022-12-28T12:07:31.040Z,4.15
2022-12-28T12:10:30.086Z,4.20
2022-12-28T12:12:59.880Z,4.22
2022-12-28T12:15:39.920Z,4.25
2022-12-28T12:18:18.731Z,4.29
2022-12-28T12:20:54.468Z,4.32
2022-12-28T12:23:30.347Z,4.37
2022-12-28T12:26:03.349Z,4.47
2022-12-28T12:28:40.656Z,4.58
2022-12-28T12:31:15.541Z,4.78
2022-12-28T12:33:48.655Z,5.78
2022-12-28T12:36:42.781Z,6.45
2022-12-28T12:39:35.502Z,6.36
2022-12-28T12:42:14.742Z,6.15
2022-12-28T12:47:06.467Z,5.88
2022-12-28T12:49:53.656Z,5.71
2022-12-28T12:52:42.347Z,5.60
2022-12-28T12:55:25.068Z,5.52
2022-12-28T12:58:03.327Z,5.49
2022-12-28T13:00:49.000Z,5.47
2022-12-28T13:03:31.177Z,5.50
2022-12-28T13:06:05.432Z,5.83
2022-12-28T13:08:42.530Z,6.20
2022-12-28T13:11:16.482Z,6.16
2022-12-28T13:13:54.294Z,6.14
2022-12-28T13:16:29.892Z,6.29
2022-12-28T13:19:07.221Z,6.36
2022-12-28T13:21:46.119Z,6.30
2022-12-28T13:24:27.462Z,6.21
2022-12-28T13:27:02.607Z,6.12
2022-12-28T13:29:40.051Z,6.01
2022-12-28T13:32:34.328Z,5.93
2022-12-28T13:35:22.536Z,5.86
2022-12-28T13:38:06.068Z,5.78
2022-12-28T13:40:41.764Z,5.76
2022-12-28T13:43:46.624Z,5.75
2022-12-28T13:46:21.592Z,5.70
2022-12-28T13:48:59.525Z,5.63
2022-12-28T13:51:32.452Z,5.56
2022-12-28T13:54:05.113Z,5.52
2022-12-28T13:56:42.029Z,5.48
2022-12-28T13:59:18.512Z,5.44
2022-12-28T14:01:52.616Z,5.38
2022-12-28T14:07:25.401Z,5.25
2022-12-28T14:09:58.582Z,5.19
2022-12-28T14:12:32.514Z,5.12
2022-12-28T14:15:05.797Z,5.04
2022-12-28T14:17:41.250Z,4.99
2022-12-28T14:20:14.671Z,4.92
2022-12-28T14:22:49.026Z,4.86
2022-12-28T14:25:23.678Z,4.79
2022-12-28T14:28:02.069Z,4.72
2022-12-28T14:30:39.838Z,4.64
2022-12-28T14:33:24.794Z,4.56
2022-12-28T14:36:01.127Z,4.49
2022-12-28T14:38:36.003Z,4.45
2022-12-28T14:41:22.660Z,4.39
2022-12-28T14:43:58.198Z,4.35
2022-12-28T14:46:36.751Z,4.30
2022-12-28T14:49:38.317Z,4.22
2022-12-28T14:52:47.318Z,4.16
2022-12-28T14:55:35.935Z,4.10
2022-12-28T14:58:18.585Z,4.05
2022-12-28T15:01:00.418Z,3.97
2022-12-28T15:03:49.275Z,3.93
2022-12-28T15:06:22.317Z,3.91
2022-12-28T15:08:58.520Z,3.89
2022-12-28T15:11:32.401Z,3.86
2022-12-28T15:14:05.940Z,3.83
2022-12-28T15:16:40.782Z,3.80
2022-12-28T15:19:13.604Z,3.78
2022-12-28T15:21:46.295Z,3.76
2022-12-28T15:24:22.652Z,3.74
2022-12-28T15:26:59.064Z,3.74
2022-12-28T15:30:03.681Z,3.71
2022-12-28T15:32:24.524Z,3.68
2022-12-28T15:34:57.495Z,3.67
2022-12-28T15:37:30.496Z,3.66
2022-12-28T15:40:04.104Z,3.65
2022-12-28T15:42:40.583Z,3.65
2022-12-28T15:45:17.662Z,3.65
2022-12-28T15:47:50.706Z,3.65
2022-12-28T15:50:26.073Z,3.62
2022-12-28T15:53:01.820Z,3.60
2022-12-28T15:55:38.581Z,3.59
2022-12-28T15:58:13.596Z,3.56
2022-12-28T16:00:47.859Z,3.54
2022-12-28T16:03:20.679Z,3.52
2022-12-28T16:05:53.423Z,3.48
2022-12-28T16:08:25.846Z,3.43
2022-12-28T16:11:08.102Z,3.43
2022-12-28T16:13:42.143Z,3.43
2022-12-28T16:16:15.755Z,3.42
2022-12-28T16:18:48.697Z,3.42
2022-12-28T16:21:21.239Z,3.44
2022-12-28T16:23:53.810Z,3.46
2022-12-28T16:26:26.353Z,3.45
2022-12-28T16:29:00.203Z,3.44
2022-12-28T16:31:37.410Z,3.42
2022-12-28T16:34:12.677Z,3.41
2022-12-28T16:36:46.433Z,3.41
2022-12-28T16:39:21.062Z,3.43
2022-12-28T16:41:53.709Z,3.42
2022-12-28T16:44:29.486Z,3.42
2022-12-28T16:47:06.092Z,3.43
2022-12-28T16:49:41.850Z,3.45
2022-12-28T16:52:14.909Z,3.46
2022-12-28T16:54:47.403Z,3.47
2022-12-28T16:57:19.815Z,3.48
2022-12-28T16:59:52.823Z,3.50
2022-12-28T17:02:25.520Z,3.52
2022-12-28T17:04:58.431Z,3.53
2022-12-28T17:07:31.089Z,3.54
2022-12-28T17:10:03.584Z,3.53
2022-12-28T17:12:36.243Z,3.52
2022-12-28T17:15:10.620Z,3.52
2022-12-28T17:17:43.235Z,3.51
2022-12-28T17:20:17.610Z,3.52
2022-12-28T17:22:50.215Z,3.52
2022-12-28T17:25:22.749Z,3.49
2022-12-28T17:27:56.795Z,3.49
2022-12-28T17:30:32.218Z,3.48
2022-12-28T17:33:04.906Z,3.48
2022-12-28T17:35:40.137Z,3.49
2022-12-28T17:38:12.763Z,3.49
2022-12-28T17:40:45.184Z,3.49
2022-12-28T17:43:17.721Z,3.49
2022-12-28T17:45:50.588Z,3.50
2022-12-28T17:48:29.786Z,3.48
2022-12-28T17:51:05.392Z,3.49
2022-12-28T17:53:41.247Z,3.48
2022-12-28T17:56:16.214Z,3.48
2022-12-28T17:58:49.775Z,3.48
2022-12-28T18:01:22.766Z,3.46
2022-12-28T18:03:55.605Z,3.46
2022-12-28T18:06:29.025Z,3.48
2022-12-28T18:09:01.613Z,3.51
2022-12-28T18:11:34.204Z,3.56
2022-12-28T18:14:07.893Z,3.62
2022-12-28T18:16:41.382Z,3.67
2022-12-28T18:19:16.165Z,3.72
2022-12-28T18:21:49.001Z,3.74
2022-12-28T18:24:24.763Z,3.76
2022-12-28T18:26:57.267Z,3.79
2022-12-28T18:29:29.695Z,3.81
2022-12-28T18:32:02.431Z,3.84
2022-12-28T18:34:35.002Z,3.88
2022-12-28T18:37:08.059Z,3.90
2022-12-28T18:39:40.557Z,3.91
2022-12-28T18:42:18.399Z,3.93
2022-12-28T18:44:53.423Z,3.94
2022-12-28T18:47:25.926Z,3.96
2022-12-28T18:50:00.196Z,3.96
2022-12-28T18:52:35.998Z,3.97
2022-12-28T18:55:09.973Z,3.97
2022-12-28T18:57:42.482Z,3.96
2022-12-28T19:00:16.775Z,3.94
2022-12-28T19:02:53.427Z,3.95
2022-12-28T19:05:26.501Z,3.97
2022-12-28T19:07:58.958Z,3.99
2022-12-28T19:10:31.330Z,3.99
2022-12-28T19:13:03.766Z,3.99
2022-12-28T19:15:36.268Z,4.00
2022-12-28T19:18:09.824Z,4.00
2022-12-28T19:20:42.316Z,4.02
2022-12-28T19:23:15.297Z,4.03
2022-12-28T19:25:47.922Z,4.02
2022-12-28T19:28:23.338Z,4.01
2022-12-28T19:30:59.577Z,3.99
2022-12-28T19:33:37.421Z,3.97
2022-12-28T19:36:10.943Z,3.97
2022-12-28T19:38:43.688Z,3.98
2022-12-28T19:41:17.918Z,3.98
2022-12-28T19:43:50.655Z,3.98
2022-12-28T19:46:31.307Z,3.98
2022-12-28T19:49:05.524Z,3.98
2022-12-28T19:51:38.303Z,3.99
2022-12-28T19:54:11.058Z,4.01
2022-12-28T19:56:44.807Z,4.00
2022-12-28T19:59:18.765Z,4.01
2022-12-28T20:01:51.335Z,4.02
2022-12-28T20:04:23.906Z,4.01
2022-12-28T20:06:57.278Z,4.02
2022-12-28T20:09:29.795Z,4.03
2022-12-28T20:12:04.978Z,4.03
2022-12-28T20:14:38.100Z,4.03
2022-12-28T20:17:11.158Z,4.01
2022-12-28T20:19:43.686Z,4.02
2022-12-28T20:22:16.340Z,4.03
2022-12-28T20:24:48.821Z,4.02
2022-12-28T20:27:21.196Z,4.04
2022-12-28T20:29:53.557Z,4.04
2022-12-28T20:32:26.125Z,4.06
2022-12-28T20:34:59.632Z,4.08
2022-12-28T20:37:32.151Z,4.11
2022-12-28T20:40:05.904Z,4.13
2022-12-28T20:42:55.688Z,4.13
2022-12-28T20:45:28.074Z,4.13
2022-12-28T20:48:03.097Z,4.10
2022-12-28T20:50:36.815Z,4.09
2022-12-28T20:53:11.425Z,4.08
2022-12-28T20:55:43.832Z,4.06
2022-12-28T20:58:16.706Z,4.06
2022-12-28T21:00:49.994Z,4.06
2022-12-28T21:03:22.493Z,4.07
2022-12-28T21:05:57.356Z,4.06
2022-12-28T21:08:31.184Z,4.06
2022-12-28T21:11:08.450Z,4.07
2022-12-28T21:13:44.502Z,4.08
2022-12-28T21:16:17.988Z,4.11
2022-12-28T21:18:52.251Z,4.13
2022-12-28T21:21:24.867Z,4.13
2022-12-28T21:23:57.339Z,4.15
2022-12-28T21:26:29.785Z,4.14
2022-12-28T21:29:02.538Z,4.15
2022-12-28T21:31:34.925Z,4.15
2022-12-28T21:34:07.349Z,4.15
2022-12-28T21:36:39.937Z,4.13
2022-12-28T21:39:12.564Z,4.10
2022-12-28T21:41:51.072Z,4.08
2022-12-28T21:44:25.564Z,4.07
2022-12-28T21:46:58.984Z,4.03
2022-12-28T21:49:31.480Z,3.99
2022-12-28T21:52:04.170Z,3.93
2022-12-28T21:54:37.319Z,3.87
2022-12-28T21:57:11.694Z,3.82
2022-12-28T21:59:44.474Z,3.76
2022-12-28T22:02:38.468Z,3.74
2022-12-28T22:05:30.190Z,3.70
2022-12-28T22:08:16.438Z,3.68
2022-12-28T22:11:08.716Z,3.65
2022-12-28T22:13:41.294Z,3.65
2022-12-28T22:16:13.800Z,3.64
2022-12-28T22:19:02.335Z,3.60
2022-12-28T22:21:36.223Z,3.57
2022-12-28T22:24:09.373Z,3.56
2022-12-28T22:26:41.914Z,3.56
2022-12-28T22:29:15.507Z,3.55
2022-12-28T22:31:48.186Z,3.53
2022-12-28T22:34:20.992Z,3.51
2022-12-28T22:36:56.239Z,3.47
2022-12-28T22:39:28.822Z,3.45
2022-12-28T22:42:01.298Z,3.44
2022-12-28T22:44:33.817Z,3.42
2022-12-28T22:47:08.914Z,3.41
2022-12-28T22:49:41.364Z,3.41
2022-12-28T22:52:13.846Z,3.40
2022-12-28T22:54:47.936Z,3.40
2022-12-28T22:57:20.731Z,3.39
2022-12-28T22:59:53.214Z,3.40
2022-12-28T23:02:25.787Z,3.40
2022-12-28T23:05:01.128Z,3.39
2022-12-28T23:07:36.389Z,3.38
2022-12-28T23:10:11.416Z,3.36
2022-12-28T23:12:46.676Z,3.36
2022-12-28T23:15:19.971Z,3.35
2022-12-28T23:18:13.451Z,3.32
2022-12-28T23:21:03.447Z,3.29
2022-12-28T23:23:53.561Z,3.28
2022-12-28T23:26:42.374Z,3.25
2022-12-28T23:29:14.816Z,3.26
2022-12-28T23:31:47.518Z,3.28
2022-12-28T23:34:19.990Z,3.30
2022-12-28T23:36:55.488Z,3.31
2022-12-28T23:39:28.005Z,3.33
2022-12-28T23:42:00.460Z,3.35
2022-12-28T23:44:33.048Z,3.39
2022-12-28T23:47:06.268Z,3.42
2022-12-28T23:49:39.167Z,3.45
2022-12-28T23:52:11.642Z,3.48
2022-12-28T23:54:44.121Z,3.49
2022-12-28T23:57:16.678Z,3.51
2022-12-28T23:59:49.573Z,3.54
